sensor_id;sensor_type;location;lat;lon;timestamp;P1;durP1;ratioP1;P2;durP2;ratioP2
5295;SDS011;2670;42.720;23.336;2024-01-27T00:01:47;3.83;;;3.10;;
5295;SDS011;2670;42.720;23.336;2024-01-27T00:04:15;8.17;;;4.00;;
5295;SDS011;2670;42.720;23.336;2024-01-27T00:06:41;7.53;;;4.40;;
5295;SDS011;2670;42.720;23.336;2024-01-27T00:09:08;8.00;;;4.60;;
5295;SDS011;2670;42.720;23.336;2024-01-27T00:11:34;8.60;;;4.53;;
5295;SDS011;2670;42.720;23.336;2024-01-27T00:14:01;10.80;;;4.17;;
5295;SDS011;2670;42.720;23.336;2024-01-27T00:16:28;6.93;;;3.67;;
5295;SDS011;2670;42.720;23.336;2024-01-27T00:18:54;14.10;;;5.90;;
5295;SDS011;2670;42.720;23.336;2024-01-27T00:21:22;14.53;;;5.13;;
5295;SDS011;2670;42.720;23.336;2024-01-27T00:23:48;10.07;;;4.37;;
5295;SDS011;2670;42.720;23.336;2024-01-27T00:26:15;14.30;;;5.10;;
5295;SDS011;2670;42.720;23.336;2024-01-27T00:28:41;6.00;;;3.27;;
5295;SDS011;2670;42.720;23.336;2024-01-27T00:31:08;7.83;;;3.50;;
5295;SDS011;2670;42.720;23.336;2024-01-27T00:33:34;11.93;;;4.93;;
5295;SDS011;2670;42.720;23.336;2024-01-27T00:36:01;5.57;;;3.93;;
5295;SDS011;2670;42.720;23.336;2024-01-27T00:38:29;8.77;;;3.93;;
5295;SDS011;2670;42.720;23.336;2024-01-27T00:40:55;8.33;;;4.10;;
5295;SDS011;2670;42.720;23.336;2024-01-27T00:43:22;5.10;;;3.90;;
5295;SDS011;2670;42.720;23.336;2024-01-27T00:45:49;11.30;;;6.03;;
5295;SDS011;2670;42.720;23.336;2024-01-27T00:48:15;17.00;;;6.90;;
5295;SDS011;2670;42.720;23.336;2024-01-27T00:50:41;5.87;;;3.93;;
5295;SDS011;2670;42.720;23.336;2024-01-27T00:53:08;11.63;;;4.80;;
5295;SDS011;2670;42.720;23.336;2024-01-27T00:55:36;8.20;;;4.60;;
5295;SDS011;2670;42.720;23.336;2024-01-27T00:58:02;12.50;;;5.87;;
5295;SDS011;2670;42.720;23.336;2024-01-27T01:00:29;10.73;;;5.37;;
5295;SDS011;2670;42.720;23.336;2024-01-27T01:02:55;9.37;;;5.10;;
5295;SDS011;2670;42.720;23.336;2024-01-27T01:05:21;19.47;;;8.03;;
5295;SDS011;2670;42.720;23.336;2024-01-27T01:07:48;32.50;;;13.67;;
5295;SDS011;2670;42.720;23.336;2024-01-27T01:10:14;20.70;;;8.37;;
5295;SDS011;2670;42.720;23.336;2024-01-27T01:12:42;13.37;;;6.77;;
5295;SDS011;2670;42.720;23.336;2024-01-27T01:15:09;14.07;;;7.60;;
5295;SDS011;2670;42.720;23.336;2024-01-27T01:17:35;12.10;;;5.83;;
5295;SDS011;2670;42.720;23.336;2024-01-27T01:20:02;12.40;;;6.30;;
5295;SDS011;2670;42.720;23.336;2024-01-27T01:22:29;14.40;;;6.10;;
5295;SDS011;2670;42.720;23.336;2024-01-27T01:24:56;10.33;;;5.37;;
5295;SDS011;2670;42.720;23.336;2024-01-27T01:27:23;11.63;;;5.30;;
5295;SDS011;2670;42.720;23.336;2024-01-27T01:29:51;11.23;;;5.80;;
5295;SDS011;2670;42.720;23.336;2024-01-27T01:32:17;8.80;;;4.67;;
5295;SDS011;2670;42.720;23.336;2024-01-27T01:34:45;10.27;;;3.87;;
5295;SDS011;2670;42.720;23.336;2024-01-27T01:37:12;12.40;;;4.00;;
5295;SDS011;2670;42.720;23.336;2024-01-27T01:39:39;8.63;;;4.20;;
5295;SDS011;2670;42.720;23.336;2024-01-27T01:42:05;14.53;;;5.00;;
5295;SDS011;2670;42.720;23.336;2024-01-27T01:44:31;7.43;;;4.10;;
5295;SDS011;2670;42.720;23.336;2024-01-27T01:46:59;13.80;;;4.53;;
5295;SDS011;2670;42.720;23.336;2024-01-27T01:49:26;17.77;;;5.93;;
5295;SDS011;2670;42.720;23.336;2024-01-27T01:51:52;15.70;;;5.40;;
5295;SDS011;2670;42.720;23.336;2024-01-27T01:54:19;10.70;;;5.87;;
5295;SDS011;2670;42.720;23.336;2024-01-27T01:56:47;15.83;;;7.27;;
5295;SDS011;2670;42.720;23.336;2024-01-27T01:59:14;16.60;;;7.30;;
5295;SDS011;2670;42.720;23.336;2024-01-27T02:01:40;15.63;;;5.33;;
5295;SDS011;2670;42.720;23.336;2024-01-27T02:04:08;7.97;;;4.13;;
5295;SDS011;2670;42.720;23.336;2024-01-27T02:06:34;8.70;;;4.43;;
5295;SDS011;2670;42.720;23.336;2024-01-27T02:09:01;9.70;;;3.70;;
5295;SDS011;2670;42.720;23.336;2024-01-27T02:11:27;14.53;;;5.83;;
5295;SDS011;2670;42.720;23.336;2024-01-27T02:13:54;8.77;;;4.33;;
5295;SDS011;2670;42.720;23.336;2024-01-27T02:16:21;12.23;;;3.47;;
5295;SDS011;2670;42.720;23.336;2024-01-27T02:18:47;8.03;;;3.03;;
5295;SDS011;2670;42.720;23.336;2024-01-27T02:21:15;11.33;;;3.50;;
5295;SDS011;2670;42.720;23.336;2024-01-27T02:23:41;12.03;;;3.43;;
5295;SDS011;2670;42.720;23.336;2024-01-27T02:26:09;11.23;;;4.03;;
5295;SDS011;2670;42.720;23.336;2024-01-27T02:28:36;6.57;;;3.40;;
5295;SDS011;2670;42.720;23.336;2024-01-27T02:31:02;5.87;;;2.63;;
5295;SDS011;2670;42.720;23.336;2024-01-27T02:33:29;5.53;;;2.80;;
5295;SDS011;2670;42.720;23.336;2024-01-27T02:35:55;6.07;;;3.07;;
5295;SDS011;2670;42.720;23.336;2024-01-27T02:38:22;7.07;;;3.37;;
5295;SDS011;2670;42.720;23.336;2024-01-27T02:40:48;12.57;;;3.50;;
5295;SDS011;2670;42.720;23.336;2024-01-27T02:43:16;7.43;;;2.70;;
5295;SDS011;2670;42.720;23.336;2024-01-27T02:45:42;11.97;;;2.97;;
5295;SDS011;2670;42.720;23.336;2024-01-27T02:48:09;5.00;;;2.87;;
5295;SDS011;2670;42.720;23.336;2024-01-27T02:50:35;12.33;;;4.07;;
5295;SDS011;2670;42.720;23.336;2024-01-27T02:53:01;9.17;;;3.97;;
5295;SDS011;2670;42.720;23.336;2024-01-27T02:55:28;13.83;;;3.80;;
5295;SDS011;2670;42.720;23.336;2024-01-27T02:57:54;9.30;;;3.10;;
5295;SDS011;2670;42.720;23.336;2024-01-27T03:00:22;18.87;;;4.60;;
5295;SDS011;2670;42.720;23.336;2024-01-27T03:02:48;19.67;;;5.67;;
5295;SDS011;2670;42.720;23.336;2024-01-27T03:05:15;9.47;;;3.30;;
5295;SDS011;2670;42.720;23.336;2024-01-27T03:07:41;5.03;;;2.83;;
5295;SDS011;2670;42.720;23.336;2024-01-27T03:10:08;5.17;;;2.90;;
5295;SDS011;2670;42.720;23.336;2024-01-27T03:12:34;6.60;;;2.50;;
5295;SDS011;2670;42.720;23.336;2024-01-27T03:15:01;7.80;;;2.90;;
5295;SDS011;2670;42.720;23.336;2024-01-27T03:17:28;6.00;;;2.83;;
5295;SDS011;2670;42.720;23.336;2024-01-27T03:19:55;9.63;;;3.30;;
5295;SDS011;2670;42.720;23.336;2024-01-27T03:22:21;11.70;;;2.57;;
5295;SDS011;2670;42.720;23.336;2024-01-27T03:24:48;3.90;;;2.20;;
5295;SDS011;2670;42.720;23.336;2024-01-27T03:27:16;7.50;;;2.90;;
5295;SDS011;2670;42.720;23.336;2024-01-27T03:29:43;3.73;;;2.47;;
5295;SDS011;2670;42.720;23.336;2024-01-27T03:32:09;8.60;;;2.60;;
5295;SDS011;2670;42.720;23.336;2024-01-27T03:34:37;6.50;;;2.80;;
5295;SDS011;2670;42.720;23.336;2024-01-27T03:37:07;5.33;;;2.60;;
5295;SDS011;2670;42.720;23.336;2024-01-27T03:39:34;8.33;;;2.20;;
5295;SDS011;2670;42.720;23.336;2024-01-27T03:42:00;6.20;;;2.10;;
5295;SDS011;2670;42.720;23.336;2024-01-27T03:44:26;5.63;;;1.83;;
5295;SDS011;2670;42.720;23.336;2024-01-27T03:46:53;9.00;;;2.57;;
5295;SDS011;2670;42.720;23.336;2024-01-27T03:49:19;4.67;;;3.07;;
5295;SDS011;2670;42.720;23.336;2024-01-27T03:51:47;3.73;;;2.37;;
5295;SDS011;2670;42.720;23.336;2024-01-27T03:54:13;12.33;;;3.53;;
5295;SDS011;2670;42.720;23.336;2024-01-27T03:56:40;9.47;;;4.30;;
5295;SDS011;2670;42.720;23.336;2024-01-27T03:59:07;15.27;;;4.50;;
5295;SDS011;2670;42.720;23.336;2024-01-27T04:01:34;9.83;;;4.40;;
5295;SDS011;2670;42.720;23.336;2024-01-27T04:04:00;10.33;;;5.10;;
5295;SDS011;2670;42.720;23.336;2024-01-27T04:06:27;16.30;;;6.87;;
5295;SDS011;2670;42.720;23.336;2024-01-27T04:08:54;11.50;;;4.80;;
5295;SDS011;2670;42.720;23.336;2024-01-27T04:11:21;9.73;;;4.10;;
5295;SDS011;2670;42.720;23.336;2024-01-27T04:13:48;6.53;;;4.80;;
5295;SDS011;2670;42.720;23.336;2024-01-27T04:16:15;13.53;;;7.57;;
5295;SDS011;2670;42.720;23.336;2024-01-27T04:18:41;13.30;;;8.37;;
5295;SDS011;2670;42.720;23.336;2024-01-27T04:21:07;11.00;;;5.80;;
5295;SDS011;2670;42.720;23.336;2024-01-27T04:23:34;18.57;;;10.20;;
5295;SDS011;2670;42.720;23.336;2024-01-27T04:26:02;11.17;;;5.43;;
5295;SDS011;2670;42.720;23.336;2024-01-27T04:28:28;13.40;;;8.63;;
5295;SDS011;2670;42.720;23.336;2024-01-27T04:30:55;10.50;;;5.20;;
5295;SDS011;2670;42.720;23.336;2024-01-27T04:33:21;7.20;;;5.20;;
5295;SDS011;2670;42.720;23.336;2024-01-27T04:35:48;5.53;;;3.23;;
5295;SDS011;2670;42.720;23.336;2024-01-27T04:38:15;9.30;;;3.80;;
5295;SDS011;2670;42.720;23.336;2024-01-27T04:40:41;3.93;;;2.93;;
5295;SDS011;2670;42.720;23.336;2024-01-27T04:43:09;7.53;;;3.17;;
5295;SDS011;2670;42.720;23.336;2024-01-27T04:45:36;14.43;;;3.90;;
5295;SDS011;2670;42.720;23.336;2024-01-27T04:48:02;8.27;;;3.47;;
5295;SDS011;2670;42.720;23.336;2024-01-27T04:50:29;13.83;;;3.50;;
5295;SDS011;2670;42.720;23.336;2024-01-27T04:52:55;3.90;;;2.10;;
5295;SDS011;2670;42.720;23.336;2024-01-27T04:55:21;5.97;;;3.37;;
5295;SDS011;2670;42.720;23.336;2024-01-27T04:57:48;6.60;;;3.40;;
5295;SDS011;2670;42.720;23.336;2024-01-27T05:00:16;5.60;;;3.50;;
5295;SDS011;2670;42.720;23.336;2024-01-27T05:02:42;7.70;;;4.10;;
5295;SDS011;2670;42.720;23.336;2024-01-27T05:05:09;8.80;;;4.93;;
5295;SDS011;2670;42.720;23.336;2024-01-27T05:07:36;9.63;;;3.43;;
5295;SDS011;2670;42.720;23.336;2024-01-27T05:10:03;10.00;;;4.03;;
5295;SDS011;2670;42.720;23.336;2024-01-27T05:12:30;28.00;;;15.10;;
5295;SDS011;2670;42.720;23.336;2024-01-27T05:14:56;16.80;;;5.37;;
5295;SDS011;2670;42.720;23.336;2024-01-27T05:17:24;8.57;;;3.40;;
5295;SDS011;2670;42.720;23.336;2024-01-27T05:19:51;13.27;;;5.33;;
5295;SDS011;2670;42.720;23.336;2024-01-27T05:22:17;6.37;;;3.70;;
5295;SDS011;2670;42.720;23.336;2024-01-27T05:24:43;13.37;;;4.37;;
5295;SDS011;2670;42.720;23.336;2024-01-27T05:27:10;25.80;;;11.30;;
5295;SDS011;2670;42.720;23.336;2024-01-27T05:29:36;17.00;;;7.90;;
5295;SDS011;2670;42.720;23.336;2024-01-27T05:32:03;19.77;;;7.33;;
5295;SDS011;2670;42.720;23.336;2024-01-27T05:34:31;14.00;;;4.97;;
5295;SDS011;2670;42.720;23.336;2024-01-27T05:36:57;8.50;;;3.93;;
5295;SDS011;2670;42.720;23.336;2024-01-27T05:39:24;7.20;;;4.00;;
5295;SDS011;2670;42.720;23.336;2024-01-27T05:41:50;18.00;;;6.63;;
5295;SDS011;2670;42.720;23.336;2024-01-27T05:44:17;19.70;;;5.90;;
5295;SDS011;2670;42.720;23.336;2024-01-27T05:46:43;7.87;;;4.40;;
5295;SDS011;2670;42.720;23.336;2024-01-27T05:49:09;10.70;;;5.90;;
5295;SDS011;2670;42.720;23.336;2024-01-27T05:51:37;10.20;;;3.83;;
5295;SDS011;2670;42.720;23.336;2024-01-27T05:54:04;9.77;;;4.83;;
5295;SDS011;2670;42.720;23.336;2024-01-27T05:56:30;11.80;;;4.20;;
5295;SDS011;2670;42.720;23.336;2024-01-27T05:58:57;6.97;;;4.13;;
5295;SDS011;2670;42.720;23.336;2024-01-27T06:01:23;11.00;;;5.07;;
5295;SDS011;2670;42.720;23.336;2024-01-27T06:03:50;10.63;;;4.00;;
5295;SDS011;2670;42.720;23.336;2024-01-27T06:06:16;8.80;;;5.07;;
5295;SDS011;2670;42.720;23.336;2024-01-27T06:08:44;6.03;;;4.07;;
5295;SDS011;2670;42.720;23.336;2024-01-27T06:11:10;5.00;;;3.50;;
5295;SDS011;2670;42.720;23.336;2024-01-27T06:13:37;9.13;;;4.10;;
5295;SDS011;2670;42.720;23.336;2024-01-27T06:16:06;12.00;;;4.47;;
5295;SDS011;2670;42.720;23.336;2024-01-27T06:18:33;11.60;;;4.73;;
5295;SDS011;2670;42.720;23.336;2024-01-27T06:21:00;11.77;;;4.70;;
5295;SDS011;2670;42.720;23.336;2024-01-27T06:23:26;12.37;;;4.43;;
5295;SDS011;2670;42.720;23.336;2024-01-27T06:25:54;8.20;;;4.83;;
5295;SDS011;2670;42.720;23.336;2024-01-27T06:28:21;12.43;;;6.73;;
5295;SDS011;2670;42.720;23.336;2024-01-27T06:30:47;7.27;;;4.90;;
5295;SDS011;2670;42.720;23.336;2024-01-27T06:33:14;11.03;;;6.53;;
5295;SDS011;2670;42.720;23.336;2024-01-27T06:35:40;14.17;;;9.00;;
5295;SDS011;2670;42.720;23.336;2024-01-27T06:38:06;13.10;;;8.60;;
5295;SDS011;2670;42.720;23.336;2024-01-27T06:40:33;19.90;;;13.47;;
5295;SDS011;2670;42.720;23.336;2024-01-27T06:43:01;24.63;;;11.97;;
5295;SDS011;2670;42.720;23.336;2024-01-27T06:45:27;12.60;;;6.13;;
5295;SDS011;2670;42.720;23.336;2024-01-27T06:47:54;12.47;;;7.93;;
5295;SDS011;2670;42.720;23.336;2024-01-27T06:50:21;13.53;;;9.80;;
5295;SDS011;2670;42.720;23.336;2024-01-27T06:52:48;15.07;;;10.97;;
5295;SDS011;2670;42.720;23.336;2024-01-27T06:55:14;14.57;;;6.90;;
5295;SDS011;2670;42.720;23.336;2024-01-27T06:57:41;16.77;;;7.53;;
5295;SDS011;2670;42.720;23.336;2024-01-27T07:00:09;8.70;;;5.30;;
5295;SDS011;2670;42.720;23.336;2024-01-27T07:02:39;9.57;;;4.30;;
5295;SDS011;2670;42.720;23.336;2024-01-27T07:05:06;9.97;;;4.57;;
5295;SDS011;2670;42.720;23.336;2024-01-27T07:07:32;6.10;;;4.03;;
5295;SDS011;2670;42.720;23.336;2024-01-27T07:09:59;6.80;;;4.13;;
5295;SDS011;2670;42.720;23.336;2024-01-27T07:12:25;9.03;;;5.37;;
5295;SDS011;2670;42.720;23.336;2024-01-27T07:14:52;10.27;;;4.67;;
5295;SDS011;2670;42.720;23.336;2024-01-27T07:17:21;10.00;;;4.90;;
5295;SDS011;2670;42.720;23.336;2024-01-27T07:19:50;9.80;;;4.30;;
5295;SDS011;2670;42.720;23.336;2024-01-27T07:22:17;8.43;;;4.80;;
5295;SDS011;2670;42.720;23.336;2024-01-27T07:24:43;6.17;;;4.23;;
5295;SDS011;2670;42.720;23.336;2024-01-27T07:27:11;4.73;;;3.40;;
5295;SDS011;2670;42.720;23.336;2024-01-27T07:29:38;8.40;;;3.17;;
5295;SDS011;2670;42.720;23.336;2024-01-27T07:32:05;3.70;;;2.20;;
5295;SDS011;2670;42.720;23.336;2024-01-27T07:34:34;3.00;;;2.20;;
5295;SDS011;2670;42.720;23.336;2024-01-27T07:37:00;5.30;;;2.40;;
5295;SDS011;2670;42.720;23.336;2024-01-27T07:39:27;3.13;;;2.00;;
5295;SDS011;2670;42.720;23.336;2024-01-27T07:41:53;7.73;;;4.10;;
5295;SDS011;2670;42.720;23.336;2024-01-27T07:44:19;2.90;;;2.07;;
5295;SDS011;2670;42.720;23.336;2024-01-27T07:46:46;1.37;;;1.27;;
5295;SDS011;2670;42.720;23.336;2024-01-27T07:49:12;2.07;;;1.87;;
5295;SDS011;2670;42.720;23.336;2024-01-27T07:51:41;2.93;;;2.07;;
5295;SDS011;2670;42.720;23.336;2024-01-27T07:54:08;2.37;;;2.17;;
5295;SDS011;2670;42.720;23.336;2024-01-27T07:56:34;5.47;;;4.17;;
5295;SDS011;2670;42.720;23.336;2024-01-27T07:59:00;5.80;;;3.70;;
5295;SDS011;2670;42.720;23.336;2024-01-27T08:01:27;4.07;;;3.00;;
5295;SDS011;2670;42.720;23.336;2024-01-27T08:03:53;6.27;;;3.67;;
5295;SDS011;2670;42.720;23.336;2024-01-27T08:06:22;4.57;;;3.03;;
5295;SDS011;2670;42.720;23.336;2024-01-27T08:08:50;4.20;;;3.53;;
5295;SDS011;2670;42.720;23.336;2024-01-27T08:11:17;4.67;;;3.20;;
5295;SDS011;2670;42.720;23.336;2024-01-27T08:13:43;6.57;;;3.57;;
5295;SDS011;2670;42.720;23.336;2024-01-27T08:16:10;9.77;;;4.93;;
5295;SDS011;2670;42.720;23.336;2024-01-27T08:18:38;9.27;;;4.57;;
5295;SDS011;2670;42.720;23.336;2024-01-27T08:21:04;5.37;;;3.67;;
5295;SDS011;2670;42.720;23.336;2024-01-27T08:23:31;16.07;;;9.30;;
5295;SDS011;2670;42.720;23.336;2024-01-27T08:25:59;7.60;;;4.60;;
5295;SDS011;2670;42.720;23.336;2024-01-27T08:28:25;10.80;;;4.57;;
5295;SDS011;2670;42.720;23.336;2024-01-27T08:30:52;12.20;;;5.17;;
5295;SDS011;2670;42.720;23.336;2024-01-27T08:33:18;7.83;;;5.33;;
5295;SDS011;2670;42.720;23.336;2024-01-27T08:35:46;7.40;;;4.57;;
5295;SDS011;2670;42.720;23.336;2024-01-27T08:38:14;6.73;;;4.93;;
5295;SDS011;2670;42.720;23.336;2024-01-27T08:40:40;5.73;;;3.10;;
5295;SDS011;2670;42.720;23.336;2024-01-27T08:43:08;4.33;;;3.07;;
5295;SDS011;2670;42.720;23.336;2024-01-27T08:45:35;5.10;;;3.50;;
5295;SDS011;2670;42.720;23.336;2024-01-27T08:48:02;10.47;;;2.87;;
5295;SDS011;2670;42.720;23.336;2024-01-27T08:50:28;5.70;;;3.73;;
5295;SDS011;2670;42.720;23.336;2024-01-27T08:52:55;5.17;;;2.77;;
5295;SDS011;2670;42.720;23.336;2024-01-27T08:55:21;4.83;;;3.03;;
5295;SDS011;2670;42.720;23.336;2024-01-27T08:57:49;5.00;;;2.73;;
5295;SDS011;2670;42.720;23.336;2024-01-27T09:00:17;10.30;;;4.30;;
5295;SDS011;2670;42.720;23.336;2024-01-27T09:02:43;3.50;;;2.53;;
5295;SDS011;2670;42.720;23.336;2024-01-27T09:05:10;4.37;;;3.00;;
5295;SDS011;2670;42.720;23.336;2024-01-27T09:07:36;3.23;;;2.60;;
5295;SDS011;2670;42.720;23.336;2024-01-27T09:10:03;11.53;;;4.50;;
5295;SDS011;2670;42.720;23.336;2024-01-27T09:12:29;5.03;;;2.43;;
5295;SDS011;2670;42.720;23.336;2024-01-27T09:14:56;3.10;;;2.30;;
5295;SDS011;2670;42.720;23.336;2024-01-27T09:17:23;3.17;;;2.50;;
5295;SDS011;2670;42.720;23.336;2024-01-27T09:19:50;2.77;;;2.57;;
5295;SDS011;2670;42.720;23.336;2024-01-27T09:22:17;9.13;;;3.30;;
5295;SDS011;2670;42.720;23.336;2024-01-27T09:24:43;10.50;;;3.50;;
5295;SDS011;2670;42.720;23.336;2024-01-27T09:27:10;3.87;;;3.00;;
5295;SDS011;2670;42.720;23.336;2024-01-27T09:29:37;2.90;;;2.37;;
5295;SDS011;2670;42.720;23.336;2024-01-27T09:32:03;5.30;;;3.30;;
5295;SDS011;2670;42.720;23.336;2024-01-27T09:34:31;3.50;;;2.90;;
5295;SDS011;2670;42.720;23.336;2024-01-27T09:36:58;2.77;;;2.40;;
5295;SDS011;2670;42.720;23.336;2024-01-27T09:39:24;8.20;;;4.70;;
5295;SDS011;2670;42.720;23.336;2024-01-27T09:41:51;5.27;;;3.60;;
5295;SDS011;2670;42.720;23.336;2024-01-27T09:44:17;4.17;;;3.20;;
5295;SDS011;2670;42.720;23.336;2024-01-27T09:46:44;5.97;;;3.60;;
5295;SDS011;2670;42.720;23.336;2024-01-27T09:49:12;2.57;;;2.27;;
5295;SDS011;2670;42.720;23.336;2024-01-27T09:51:41;4.97;;;3.90;;
5295;SDS011;2670;42.720;23.336;2024-01-27T09:54:08;7.50;;;3.40;;
5295;SDS011;2670;42.720;23.336;2024-01-27T09:56:34;8.13;;;3.10;;
5295;SDS011;2670;42.720;23.336;2024-01-27T09:59:01;3.63;;;2.77;;
5295;SDS011;2670;42.720;23.336;2024-01-27T10:01:27;3.53;;;2.60;;
5295;SDS011;2670;42.720;23.336;2024-01-27T10:03:54;2.37;;;2.17;;
5295;SDS011;2670;42.720;23.336;2024-01-27T10:06:20;2.10;;;1.70;;
5295;SDS011;2670;42.720;23.336;2024-01-27T10:08:51;2.10;;;1.93;;
5295;SDS011;2670;42.720;23.336;2024-01-27T10:11:18;1.63;;;1.53;;
5295;SDS011;2670;42.720;23.336;2024-01-27T10:13:45;6.37;;;3.30;;
5295;SDS011;2670;42.720;23.336;2024-01-27T10:16:11;3.13;;;2.80;;
5295;SDS011;2670;42.720;23.336;2024-01-27T10:18:37;7.20;;;2.30;;
5295;SDS011;2670;42.720;23.336;2024-01-27T10:21:12;4.03;;;3.63;;
5295;SDS011;2670;42.720;23.336;2024-01-27T10:23:38;2.43;;;2.23;;
5295;SDS011;2670;42.720;23.336;2024-01-27T10:26:08;1.93;;;1.83;;
5295;SDS011;2670;42.720;23.336;2024-01-27T10:28:34;2.57;;;2.37;;
5295;SDS011;2670;42.720;23.336;2024-01-27T10:31:07;3.50;;;2.80;;
5295;SDS011;2670;42.720;23.336;2024-01-27T10:33:33;7.20;;;2.20;;
5295;SDS011;2670;42.720;23.336;2024-01-27T10:36:00;2.70;;;2.50;;
5295;SDS011;2670;42.720;23.336;2024-01-27T10:38:33;5.53;;;3.00;;
5295;SDS011;2670;42.720;23.336;2024-01-27T10:40:59;4.13;;;2.70;;
5295;SDS011;2670;42.720;23.336;2024-01-27T10:43:28;3.93;;;3.23;;
5295;SDS011;2670;42.720;23.336;2024-01-27T10:45:55;1.97;;;1.47;;
5295;SDS011;2670;42.720;23.336;2024-01-27T10:48:22;2.03;;;1.83;;
5295;SDS011;2670;42.720;23.336;2024-01-27T10:50:49;3.60;;;3.30;;
5295;SDS011;2670;42.720;23.336;2024-01-27T10:53:19;2.57;;;2.37;;
5295;SDS011;2670;42.720;23.336;2024-01-27T10:55:47;3.10;;;2.30;;
5295;SDS011;2670;42.720;23.336;2024-01-27T10:58:14;8.80;;;5.03;;
5295;SDS011;2670;42.720;23.336;2024-01-27T11:00:42;11.43;;;2.80;;
5295;SDS011;2670;42.720;23.336;2024-01-27T11:03:09;4.13;;;2.20;;
5295;SDS011;2670;42.720;23.336;2024-01-27T11:05:37;4.77;;;4.20;;
5295;SDS011;2670;42.720;23.336;2024-01-27T11:08:04;7.10;;;5.67;;
5295;SDS011;2670;42.720;23.336;2024-01-27T11:10:32;4.70;;;2.90;;
5295;SDS011;2670;42.720;23.336;2024-01-27T11:13:01;4.47;;;2.60;;
5295;SDS011;2670;42.720;23.336;2024-01-27T11:15:28;6.87;;;3.90;;
5295;SDS011;2670;42.720;23.336;2024-01-27T11:17:57;3.10;;;2.80;;
5295;SDS011;2670;42.720;23.336;2024-01-27T11:20:25;4.97;;;3.57;;
5295;SDS011;2670;42.720;23.336;2024-01-27T11:22:51;3.70;;;2.90;;
5295;SDS011;2670;42.720;23.336;2024-01-27T11:25:19;3.43;;;3.13;;
5295;SDS011;2670;42.720;23.336;2024-01-27T11:27:46;3.60;;;2.47;;
5295;SDS011;2670;42.720;23.336;2024-01-27T11:30:24;5.33;;;3.97;;
5295;SDS011;2670;42.720;23.336;2024-01-27T11:32:51;3.40;;;3.00;;
5295;SDS011;2670;42.720;23.336;2024-01-27T11:35:20;2.33;;;2.13;;
5295;SDS011;2670;42.720;23.336;2024-01-27T11:37:47;3.20;;;2.80;;
5295;SDS011;2670;42.720;23.336;2024-01-27T11:40:14;4.93;;;4.03;;
5295;SDS011;2670;42.720;23.336;2024-01-27T11:42:40;9.73;;;4.60;;
5295;SDS011;2670;42.720;23.336;2024-01-27T11:45:07;7.13;;;3.60;;
5295;SDS011;2670;42.720;23.336;2024-01-27T11:47:34;3.97;;;2.30;;
5295;SDS011;2670;42.720;23.336;2024-01-27T11:50:00;6.33;;;3.40;;
5295;SDS011;2670;42.720;23.336;2024-01-27T11:52:29;3.80;;;3.10;;
5295;SDS011;2670;42.720;23.336;2024-01-27T11:54:56;5.37;;;3.40;;
5295;SDS011;2670;42.720;23.336;2024-01-27T11:57:23;3.20;;;2.97;;
5295;SDS011;2670;42.720;23.336;2024-01-27T11:59:50;4.10;;;3.00;;
5295;SDS011;2670;42.720;23.336;2024-01-27T12:02:17;4.70;;;2.93;;
5295;SDS011;2670;42.720;23.336;2024-01-27T12:04:43;3.00;;;2.70;;
5295;SDS011;2670;42.720;23.336;2024-01-27T12:07:10;4.53;;;3.50;;
5295;SDS011;2670;42.720;23.336;2024-01-27T12:09:38;5.17;;;3.23;;
5295;SDS011;2670;42.720;23.336;2024-01-27T12:12:04;3.63;;;2.07;;
5295;SDS011;2670;42.720;23.336;2024-01-27T12:14:37;3.37;;;2.83;;
5295;SDS011;2670;42.720;23.336;2024-01-27T12:17:03;5.77;;;3.30;;
5295;SDS011;2670;42.720;23.336;2024-01-27T12:19:31;4.27;;;2.80;;
5295;SDS011;2670;42.720;23.336;2024-01-27T12:21:57;2.87;;;2.67;;
5295;SDS011;2670;42.720;23.336;2024-01-27T12:24:24;4.10;;;3.20;;
5295;SDS011;2670;42.720;23.336;2024-01-27T12:26:52;16.77;;;9.23;;
5295;SDS011;2670;42.720;23.336;2024-01-27T12:29:19;4.10;;;2.40;;
5295;SDS011;2670;42.720;23.336;2024-01-27T12:31:46;3.17;;;2.87;;
5295;SDS011;2670;42.720;23.336;2024-01-27T12:34:12;6.23;;;3.20;;
5295;SDS011;2670;42.720;23.336;2024-01-27T12:36:40;3.00;;;2.80;;
5295;SDS011;2670;42.720;23.336;2024-01-27T12:39:06;2.40;;;2.23;;
5295;SDS011;2670;42.720;23.336;2024-01-27T12:41:34;3.00;;;2.70;;
5295;SDS011;2670;42.720;23.336;2024-01-27T12:44:02;2.83;;;2.60;;
5295;SDS011;2670;42.720;23.336;2024-01-27T12:46:29;7.10;;;3.23;;
5295;SDS011;2670;42.720;23.336;2024-01-27T12:48:55;4.00;;;1.80;;
5295;SDS011;2670;42.720;23.336;2024-01-27T12:51:22;6.30;;;3.00;;
5295;SDS011;2670;42.720;23.336;2024-01-27T12:53:49;3.17;;;2.93;;
5295;SDS011;2670;42.720;23.336;2024-01-27T12:56:15;3.40;;;2.20;;
5295;SDS011;2670;42.720;23.336;2024-01-27T12:58:42;3.20;;;2.13;;
5295;SDS011;2670;42.720;23.336;2024-01-27T13:01:10;5.40;;;3.50;;
5295;SDS011;2670;42.720;23.336;2024-01-27T13:03:36;2.43;;;2.23;;
5295;SDS011;2670;42.720;23.336;2024-01-27T13:06:03;9.00;;;2.07;;
5295;SDS011;2670;42.720;23.336;2024-01-27T13:08:30;1.93;;;1.60;;
5295;SDS011;2670;42.720;23.336;2024-01-27T13:10:56;1.93;;;1.83;;
5295;SDS011;2670;42.720;23.336;2024-01-27T13:13:23;2.50;;;2.27;;
5295;SDS011;2670;42.720;23.336;2024-01-27T13:15:49;1.97;;;1.57;;
5295;SDS011;2670;42.720;23.336;2024-01-27T13:18:17;2.90;;;2.67;;
5295;SDS011;2670;42.720;23.336;2024-01-27T13:20:43;2.30;;;1.60;;
5295;SDS011;2670;42.720;23.336;2024-01-27T13:23:10;3.00;;;2.00;;
5295;SDS011;2670;42.720;23.336;2024-01-27T13:25:36;4.73;;;2.67;;
5295;SDS011;2670;42.720;23.336;2024-01-27T13:28:03;1.20;;;1.20;;
5295;SDS011;2670;42.720;23.336;2024-01-27T13:30:32;2.43;;;2.20;;
5295;SDS011;2670;42.720;23.336;2024-01-27T13:32:58;4.67;;;2.97;;
5295;SDS011;2670;42.720;23.336;2024-01-27T13:35:26;3.93;;;2.10;;
5295;SDS011;2670;42.720;23.336;2024-01-27T13:37:53;1.63;;;1.53;;
5295;SDS011;2670;42.720;23.336;2024-01-27T13:40:19;3.30;;;2.03;;
5295;SDS011;2670;42.720;23.336;2024-01-27T13:42:46;1.33;;;1.23;;
5295;SDS011;2670;42.720;23.336;2024-01-27T13:45:12;3.00;;;1.60;;
5295;SDS011;2670;42.720;23.336;2024-01-27T13:47:39;4.23;;;2.63;;
5295;SDS011;2670;42.720;23.336;2024-01-27T13:50:06;4.20;;;2.17;;
5295;SDS011;2670;42.720;23.336;2024-01-27T13:52:34;3.97;;;2.87;;
5295;SDS011;2670;42.720;23.336;2024-01-27T13:55:00;2.73;;;1.70;;
5295;SDS011;2670;42.720;23.336;2024-01-27T13:57:27;2.50;;;2.30;;
5295;SDS011;2670;42.720;23.336;2024-01-27T13:59:53;6.73;;;3.43;;
5295;SDS011;2670;42.720;23.336;2024-01-27T14:02:20;7.80;;;3.10;;
5295;SDS011;2670;42.720;23.336;2024-01-27T14:04:46;5.80;;;2.30;;
5295;SDS011;2670;42.720;23.336;2024-01-27T14:07:13;3.40;;;2.83;;
5295;SDS011;2670;42.720;23.336;2024-01-27T14:09:41;6.43;;;2.87;;
5295;SDS011;2670;42.720;23.336;2024-01-27T14:12:07;3.00;;;2.27;;
5295;SDS011;2670;42.720;23.336;2024-01-27T14:14:34;20.57;;;8.60;;
5295;SDS011;2670;42.720;23.336;2024-01-27T14:17:03;4.03;;;3.43;;
5295;SDS011;2670;42.720;23.336;2024-01-27T14:19:30;17.10;;;5.47;;
5295;SDS011;2670;42.720;23.336;2024-01-27T14:21:56;12.70;;;5.60;;
5295;SDS011;2670;42.720;23.336;2024-01-27T14:24:23;6.70;;;2.77;;
5295;SDS011;2670;42.720;23.336;2024-01-27T14:26:52;3.23;;;1.53;;
5295;SDS011;2670;42.720;23.336;2024-01-27T14:29:19;5.77;;;2.87;;
5295;SDS011;2670;42.720;23.336;2024-01-27T14:31:45;5.70;;;3.33;;
5295;SDS011;2670;42.720;23.336;2024-01-27T14:34:12;7.93;;;3.33;;
5295;SDS011;2670;42.720;23.336;2024-01-27T14:36:38;6.90;;;4.47;;
5295;SDS011;2670;42.720;23.336;2024-01-27T14:39:08;18.30;;;5.17;;
5295;SDS011;2670;42.720;23.336;2024-01-27T14:41:36;9.47;;;3.50;;
5295;SDS011;2670;42.720;23.336;2024-01-27T14:44:04;7.97;;;2.73;;
5295;SDS011;2670;42.720;23.336;2024-01-27T14:46:31;7.60;;;2.70;;
5295;SDS011;2670;42.720;23.336;2024-01-27T14:48:58;6.93;;;3.37;;
5295;SDS011;2670;42.720;23.336;2024-01-27T14:51:24;8.63;;;3.20;;
5295;SDS011;2670;42.720;23.336;2024-01-27T14:53:51;2.90;;;2.50;;
5295;SDS011;2670;42.720;23.336;2024-01-27T14:56:17;3.93;;;2.97;;